Time;durP1;ratioP1;P1;durP2;ratioP2;P2;SDS_P1;SDS_P2;PMS_P1;PMS_P2;Temp;Humidity;BMP_temperature;BMP_pressure;BME280_temperature;BME280_humidity;BME280_pressure;Samples;Min_cycle;Max_cycle;Signal;HPM_P1;HPM_P2
2023/01/10 00:00:53;;;;;;;6.93;1.98;;;5.30;99.90;;;;;;5054098;28;20048;-76
2023/01/10 00:03:18;;;;;;;11.55;3.08;;;5.30;99.90;;;;;;5037588;28;20052;-77
2023/01/10 00:05:44;;;;;;;9.25;2.10;;;5.30;99.90;;;;;;5053484;28;20048;-77
2023/01/10 00:08:14;;;;;;;6.00;2.30;;;5.40;99.90;;;;;;5053602;28;20048;-77
2023/01/10 00:10:40;;;;;;;5.15;1.90;;;5.40;99.90;;;;;;5070248;28;20053;-77
2023/01/10 00:13:23;;;;;;;12.55;2.42;;;5.90;99.90;;;;;;5070779;28;20067;-77
2023/01/10 00:15:54;;;;;;;9.20;2.50;;;5.30;99.90;;;;;;5069961;28;20056;-77
2023/01/10 00:18:21;;;;;;;9.75;2.30;;;5.30;99.90;;;;;;5070150;28;20059;-76
2023/01/10 00:20:50;;;;;;;11.40;2.20;;;5.70;99.90;;;;;;5070014;28;20078;-76
2023/01/10 00:23:18;;;;;;;16.95;3.03;;;5.20;99.90;;;;;;5070215;28;20049;-76
2023/01/10 00:25:45;;;;;;;11.52;2.50;;;5.20;99.90;;;;;;5070211;28;20398;-76
2023/01/10 00:28:18;;;;;;;17.90;2.35;;;5.30;99.90;;;;;;5070734;28;20106;-77
2023/01/10 00:31:00;;;;;;;11.50;2.20;;;5.00;99.90;;;;;;5069948;28;20051;-77
2023/01/10 00:33:28;;;;;;;16.83;2.78;;;5.00;99.90;;;;;;5070305;28;20397;-77
2023/01/10 00:35:54;;;;;;;10.98;2.55;;;4.90;99.90;;;;;;5069845;28;20091;-77
2023/01/10 00:38:20;;;;;;;14.05;2.55;;;5.00;99.90;;;;;;5069841;28;20070;-77
2023/01/10 00:40:45;;;;;;;16.30;2.60;;;4.90;99.90;;;;;;5053332;28;20055;-77
2023/01/10 00:45:56;;;;;;;12.75;3.05;;;4.60;99.90;;;;;;5070287;28;20062;-77
2023/01/10 00:48:23;;;;;;;11.63;2.67;;;4.60;99.90;;;;;;5053625;28;20060;-76
2023/01/10 00:50:48;;;;;;;17.80;2.78;;;4.70;99.90;;;;;;5070126;28;20129;-77
2023/01/10 00:53:14;;;;;;;18.02;3.08;;;4.40;99.90;;;;;;5069711;28;20486;-77
2023/01/10 00:55:40;;;;;;;16.58;3.38;;;4.70;99.90;;;;;;5071300;28;20048;-79
2023/01/10 00:58:10;;;;;;;16.00;3.42;;;4.40;99.90;;;;;;5069998;28;20045;-77
2023/01/10 01:00:39;;;;;;;13.23;2.92;;;4.40;99.90;;;;;;5070428;28;20105;-78
2023/01/10 01:03:05;;;;;;;20.08;2.95;;;4.50;99.90;;;;;;5069456;28;20048;-76
2023/01/10 01:05:31;;;;;;;10.30;3.08;;;4.50;99.90;;;;;;5070289;28;20048;-76
2023/01/10 01:07:57;;;;;;;20.27;3.08;;;4.60;99.90;;;;;;5069126;28;20048;-76
2023/01/10 01:10:25;;;;;;;11.52;2.70;;;4.70;99.90;;;;;;5070452;28;20114;-76
2023/01/10 01:12:51;;;;;;;16.88;3.08;;;4.70;99.90;;;;;;5069621;28;20045;-77
2023/01/10 01:15:17;;;;;;;10.30;2.92;;;4.80;99.90;;;;;;5069866;28;20088;-76
2023/01/10 01:17:43;;;;;;;16.67;3.13;;;5.00;99.90;;;;;;5036238;28;20137;-79
2023/01/10 01:20:10;;;;;;;12.27;2.67;;;4.90;99.90;;;;;;5070322;28;20044;-77
2023/01/10 01:22:36;;;;;;;10.05;2.50;;;4.90;99.90;;;;;;5073392;28;20255;-76
2023/01/10 01:25:03;;;;;;;13.13;3.13;;;5.10;99.90;;;;;;5073705;28;20076;-76
2023/01/10 01:27:30;;;;;;;15.50;2.72;;;4.90;99.90;;;;;;5057190;28;20063;-77
2023/01/10 01:29:56;;;;;;;14.18;2.63;;;5.30;99.90;;;;;;5073640;28;20049;-76
2023/01/10 01:32:22;;;;;;;8.70;3.10;;;4.90;99.90;;;;;;5073567;28;20090;-78
2023/01/10 01:34:47;;;;;;;17.25;3.00;;;4.90;99.90;;;;;;5073442;28;20044;-77
2023/01/10 01:37:13;;;;;;;11.52;2.53;;;4.90;99.90;;;;;;5073098;28;20090;-76
2023/01/10 01:39:39;;;;;;;15.15;2.53;;;5.30;99.90;;;;;;5073623;28;20135;-76
2023/01/10 01:42:05;;;;;;;11.07;3.20;;;5.00;99.90;;;;;;5073253;28;20092;-76
2023/01/10 01:44:38;;;;;;;20.65;3.42;;;4.90;99.90;;;;;;5073430;28;20055;-77
2023/01/10 01:47:25;;;;;;;13.57;2.65;;;5.00;99.90;;;;;;5073143;28;20545;-78
2023/01/10 01:49:52;;;;;;;11.52;2.75;;;5.00;99.90;;;;;;5074213;28;20059;-77
2023/01/10 01:52:24;;;;;;;6.38;2.35;;;5.00;99.90;;;;;;5073052;28;20060;-77
2023/01/10 01:54:52;;;;;;;12.88;2.30;;;5.50;99.90;;;;;;5072987;28;20052;-77
2023/01/10 01:57:22;;;;;;;10.00;2.65;;;5.20;99.90;;;;;;5056634;28;20080;-77
2023/01/10 01:59:51;;;;;;;15.15;3.15;;;5.00;99.90;;;;;;5072790;28;20155;-77
2023/01/10 02:02:20;;;;;;;15.35;3.35;;;5.00;99.90;;;;;;5056094;28;20359;-77
2023/01/10 02:05:08;;;;;;;11.73;3.25;;;5.00;99.90;;;;;;5073973;28;20083;-80
2023/01/10 02:07:37;;;;;;;20.20;4.45;;;4.90;99.90;;;;;;5055884;28;20136;-77
2023/01/10 02:10:41;;;;;;;10.63;2.75;;;4.80;99.90;;;;;;5072572;28;20055;-77
2023/01/10 02:13:08;;;;;;;9.27;2.30;;;4.70;99.90;;;;;;5072625;28;20048;-77
2023/01/10 02:15:34;;;;;;;9.38;2.38;;;4.80;99.90;;;;;;5072680;28;20090;-77
2023/01/10 02:18:02;;;;;;;7.60;2.55;;;5.00;99.90;;;;;;5072145;28;20064;-76
2023/01/10 02:20:36;;;;;;;7.07;2.55;;;5.10;99.90;;;;;;5072835;28;20052;-78
2023/01/10 02:23:20;;;;;;;12.15;2.42;;;4.60;99.90;;;;;;5071279;28;20450;-77
2023/01/10 02:26:23;;;;;;;14.73;3.00;;;4.60;99.90;;;;;;5072916;28;20052;-79
2023/01/10 02:29:19;;;;;;;16.35;2.60;;;4.60;99.90;;;;;;5072072;28;20135;-77
2023/01/10 02:32:11;;;;;;;11.02;2.33;;;4.70;99.90;;;;;;5071982;28;20482;-77
2023/01/10 02:34:44;;;;;;;20.52;3.35;;;4.60;99.90;;;;;;5072204;28;20048;-77
2023/01/10 02:37:24;;;;;;;7.75;2.03;;;4.60;99.90;;;;;;5071688;28;20049;-77
2023/01/10 02:39:59;;;;;;;22.50;3.92;;;4.60;99.90;;;;;;5071435;28;20393;-77
2023/01/10 02:43:22;;;;;;;8.93;2.60;;;4.50;99.90;;;;;;5072507;28;20078;-77
2023/01/10 02:46:09;;;;;;;10.50;2.67;;;4.50;99.90;;;;;;4994490;28;20060;-80
2023/01/10 02:48:34;;;;;;;10.77;3.17;;;4.40;99.90;;;;;;4994957;28;20486;-77
2023/01/10 02:51:03;;;;;;;8.90;2.03;;;4.30;99.90;;;;;;5039986;28;20186;-77
2023/01/10 02:53:47;;;;;;;17.67;3.03;;;4.30;99.90;;;;;;5055035;28;20604;-77
2023/01/10 02:56:31;;;;;;;14.00;2.60;;;4.20;99.90;;;;;;5071966;28;20159;-77
2023/01/10 02:59:17;;;;;;;13.95;2.78;;;4.10;99.90;;;;;;5071770;28;20060;-77
2023/01/10 03:02:05;;;;;;;12.38;2.33;;;4.10;99.90;;;;;;5072075;28;20060;-77
2023/01/10 03:04:36;;;;;;;9.63;2.53;;;4.10;99.90;;;;;;5072141;28;20056;-77
2023/01/10 03:07:26;;;;;;;14.00;2.90;;;4.10;99.90;;;;;;5071303;28;20420;-77
2023/01/10 03:09:54;;;;;;;9.13;2.45;;;4.10;99.90;;;;;;5071310;28;20056;-77
2023/01/10 03:12:51;;;;;;;15.95;3.30;;;4.00;99.90;;;;;;5071967;28;20045;-77
2023/01/10 03:15:19;;;;;;;12.60;3.13;;;4.50;99.90;;;;;;5070809;28;20049;-77
2023/01/10 03:17:49;;;;;;;14.27;2.45;;;4.20;99.90;;;;;;5054943;28;20127;-77
2023/01/10 03:20:19;;;;;;;14.25;3.15;;;4.20;99.90;;;;;;5071393;28;20052;-77
2023/01/10 03:22:46;;;;;;;14.75;2.97;;;4.20;99.90;;;;;;5070928;28;20131;-77
2023/01/10 03:25:16;;;;;;;16.80;2.90;;;4.30;99.90;;;;;;5071373;28;20056;-77
2023/01/10 03:28:01;;;;;;;27.30;3.85;;;4.30;99.90;;;;;;5071109;28;20450;-77
2023/01/10 03:30:44;;;;;;;7.65;2.42;;;4.40;99.90;;;;;;5071730;28;20473;-77
2023/01/10 03:33:13;;;;;;;13.57;2.40;;;4.40;99.90;;;;;;5070890;28;20044;-76
2023/01/10 03:36:21;;;;;;;11.52;1.92;;;4.90;99.90;;;;;;5071445;28;20490;-78
2023/01/10 03:38:56;;;;;;;13.77;2.97;;;4.50;99.90;;;;;;5070703;28;20052;-77
2023/01/10 03:41:43;;;;;;;11.77;2.95;;;4.50;99.90;;;;;;5054806;28;20086;-77
2023/01/10 03:47:40;;;;;;;11.88;2.72;;;4.50;99.90;;;;;;5070811;28;19927;-77
2023/01/10 03:50:09;;;;;;;14.32;2.60;;;4.50;99.90;;;;;;5054253;28;20048;-77
2023/01/10 03:52:36;;;;;;;14.80;3.13;;;4.50;99.90;;;;;;5070598;28;20056;-77
2023/01/10 03:55:04;;;;;;;14.07;3.00;;;4.50;99.90;;;;;;5070858;28;20109;-77
2023/01/10 03:57:30;;;;;;;15.55;2.08;;;4.50;99.90;;;;;;5070677;28;20098;-77
2023/01/10 03:59:57;;;;;;;12.82;2.42;;;4.50;99.90;;;;;;5070831;28;20073;-77
2023/01/10 04:02:28;;;;;;;10.27;2.58;;;4.50;99.90;;;;;;5070742;28;20549;-76
2023/01/10 04:04:54;;;;;;;8.90;2.60;;;4.80;99.90;;;;;;5070737;28;20520;-80
2023/01/10 04:07:20;;;;;;;13.40;2.35;;;4.30;99.90;;;;;;5070553;28;20048;-77
2023/01/10 04:09:45;;;;;;;7.13;1.92;;;4.30;99.90;;;;;;5054310;28;20057;-76
2023/01/10 04:12:11;;;;;;;11.52;2.13;;;4.60;99.90;;;;;;5071575;28;20058;-77
2023/01/10 04:14:37;;;;;;;12.00;3.03;;;4.70;99.90;;;;;;5054376;28;20044;-77
2023/01/10 04:17:03;;;;;;;17.83;2.72;;;4.50;99.90;;;;;;5070000;28;20135;-77
2023/01/10 04:19:28;;;;;;;13.15;2.38;;;4.30;99.90;;;;;;5069993;28;20529;-77
2023/01/10 04:21:54;;;;;;;15.10;2.17;;;4.30;99.90;;;;;;5053749;28;20048;-79
2023/01/10 04:24:21;;;;;;;15.45;2.50;;;4.50;99.90;;;;;;5070159;28;20075;-77
2023/01/10 04:26:46;;;;;;;;;;;4.50;99.90;;;;;;5071150;28;20082;-77
2023/01/10 04:29:12;;;;;;;7.95;1.73;;;4.60;99.90;;;;;;5053412;28;19920;-77
2023/01/10 04:31:38;;;;;;;14.07;2.30;;;4.60;99.90;;;;;;5070517;28;20040;-77
2023/01/10 04:34:05;;;;;;;11.13;2.08;;;4.70;99.90;;;;;;5070320;28;20049;-77
2023/01/10 04:36:32;;;;;;;15.32;2.20;;;4.80;99.90;;;;;;5070441;28;20056;-77
2023/01/10 04:38:57;;;;;;;9.15;2.25;;;4.80;99.90;;;;;;5052363;28;20047;-77
2023/01/10 04:41:23;;;;;;;12.07;2.97;;;5.20;99.90;;;;;;5069864;28;20048;-77
2023/01/10 04:43:49;;;;;;;11.73;3.08;;;5.00;99.90;;;;;;5070388;28;20088;-77
2023/01/10 04:46:15;;;;;;;17.90;3.75;;;5.00;99.90;;;;;;5070027;28;20164;-77
2023/01/10 04:48:40;;;;;;;;;;;5.10;99.90;;;;;;5071001;28;20493;-77
2023/01/10 04:51:06;;;;;;;12.45;2.35;;;5.30;99.90;;;;;;5070016;28;19928;-77
2023/01/10 04:53:32;;;;;;;15.15;2.50;;;5.20;99.90;;;;;;5070271;28;20045;-77
2023/01/10 04:56:05;;;;;;;16.73;2.35;;;5.30;99.90;;;;;;5071564;28;20041;-80
2023/01/10 04:58:35;;;;;;;11.75;2.47;;;5.10;99.90;;;;;;5074497;28;20048;-77
2023/01/10 05:01:22;;;;;;;15.88;2.35;;;5.20;99.90;;;;;;5074158;28;20116;-77
2023/01/10 05:03:52;;;;;;;13.95;2.58;;;5.10;99.90;;;;;;5075577;28;20105;-79
2023/01/10 05:06:19;;;;;;;14.73;2.30;;;5.10;99.90;;;;;;5073870;28;20044;-77
2023/01/10 05:08:45;;;;;;;17.98;3.03;;;5.10;99.90;;;;;;5074070;28;20546;-77
2023/01/10 05:11:11;;;;;;;18.85;2.78;;;5.10;99.90;;;;;;5073659;28;20037;-77
2023/01/10 05:13:37;;;;;;;20.73;3.25;;;5.30;99.90;;;;;;5074085;28;20049;-76
2023/01/10 05:16:03;;;;;;;;;;;5.20;99.90;;;;;;5073847;28;20375;-77
2023/01/10 05:18:29;;;;;;;18.08;2.78;;;5.00;99.90;;;;;;5073714;28;20015;-77
2023/01/10 05:21:03;;;;;;;9.80;2.60;;;5.10;99.90;;;;;;5074938;28;20084;-77
2023/01/10 05:23:29;;;;;;;21.25;2.90;;;5.10;99.90;;;;;;5057030;28;20139;-76
2023/01/10 05:25:55;;;;;;;15.32;2.65;;;5.10;99.90;;;;;;5074063;28;20131;-76
2023/01/10 05:28:20;;;;;;;15.55;2.83;;;5.60;99.90;;;;;;5073569;28;20510;-76
2023/01/10 05:30:46;;;;;;;18.48;3.58;;;5.20;99.90;;;;;;5074014;28;20040;-77
2023/01/10 05:33:12;;;;;;;13.45;3.08;;;5.30;99.90;;;;;;5072992;28;20054;-77
2023/01/10 05:35:38;;;;;;;15.35;2.58;;;5.40;99.90;;;;;;5073912;28;20053;-77
2023/01/10 05:38:03;;;;;;;12.05;2.97;;;5.60;99.90;;;;;;5055889;28;20095;-77
2023/01/10 05:40:29;;;;;;;15.68;2.63;;;5.50;99.90;;;;;;5073751;28;20460;-76
2023/01/10 05:42:55;;;;;;;17.58;2.70;;;5.30;99.90;;;;;;5056573;28;20481;-77
2023/01/10 05:45:21;;;;;;;12.57;2.42;;;5.40;99.90;;;;;;5073399;28;20124;-76
2023/01/10 05:47:47;;;;;;;17.63;2.65;;;5.30;99.90;;;;;;5073345;28;20048;-78
2023/01/10 05:50:12;;;;;;;15.57;3.08;;;5.30;99.90;;;;;;5056628;28;20044;-77
2023/01/10 05:52:39;;;;;;;13.68;2.70;;;5.30;99.90;;;;;;5072652;28;20045;-78
2023/01/10 05:55:05;;;;;;;11.43;2.38;;;5.30;99.90;;;;;;5073184;28;20086;-77
2023/01/10 05:57:30;;;;;;;13.48;2.83;;;5.30;99.90;;;;;;5073059;28;20451;-77
2023/01/10 05:59:56;;;;;;;14.63;2.90;;;5.30;99.90;;;;;;5073535;28;20554;-77
2023/01/10 06:02:22;;;;;;;12.85;2.90;;;5.40;99.90;;;;;;5072698;28;20068;-77
2023/01/10 06:04:48;;;;;;;12.25;3.25;;;5.70;99.90;;;;;;5073248;28;20044;-76
2023/01/10 06:07:14;;;;;;;13.68;3.08;;;5.40;99.90;;;;;;5071964;28;20084;-77
2023/01/10 06:09:39;;;;;;;17.27;2.83;;;5.40;99.90;;;;;;5073161;28;20503;-76
2023/01/10 06:12:05;;;;;;;19.00;3.72;;;5.30;99.90;;;;;;5073803;28;20041;-77
2023/01/10 06:14:31;;;;;;;13.43;2.97;;;5.40;99.90;;;;;;5073350;28;20470;-77
2023/01/10 06:16:56;;;;;;;10.40;3.25;;;5.80;99.90;;;;;;5072303;28;20057;-77
2023/01/10 06:19:22;;;;;;;9.15;2.50;;;5.70;99.90;;;;;;5055768;28;20052;-77
2023/01/10 06:21:48;;;;;;;15.65;3.15;;;5.60;99.90;;;;;;5073530;28;20044;-77
2023/01/10 06:24:13;;;;;;;7.10;2.53;;;5.50;99.90;;;;;;5072202;28;20478;-77
2023/01/10 06:26:39;;;;;;;13.13;2.60;;;5.50;99.90;;;;;;5072710;28;20052;-77
2023/01/10 06:29:05;;;;;;;13.07;2.72;;;5.40;99.90;;;;;;5072547;28;20048;-77
2023/01/10 06:31:31;;;;;;;7.45;2.55;;;5.50;99.90;;;;;;5072624;28;20091;-78
2023/01/10 06:33:56;;;;;;;14.50;2.90;;;5.40;99.90;;;;;;5072705;28;20094;-77
2023/01/10 06:36:22;;;;;;;12.73;3.28;;;5.50;99.90;;;;;;5072236;28;20052;-77
2023/01/10 06:38:48;;;;;;;12.35;2.55;;;5.60;99.90;;;;;;5071985;28;20048;-76
2023/01/10 06:41:13;;;;;;;18.08;2.75;;;5.30;99.90;;;;;;5072143;28;20044;-77
2023/01/10 06:43:45;;;;;;;10.15;1.70;;;5.30;99.90;;;;;;5072515;28;20052;-78
2023/01/10 06:46:12;;;;;;;10.63;2.63;;;5.10;99.90;;;;;;5071852;28;20040;-77
2023/01/10 06:48:38;;;;;;;9.98;2.80;;;5.10;99.90;;;;;;5072489;28;20177;-77
2023/01/10 06:51:05;;;;;;;17.10;3.17;;;5.20;99.90;;;;;;5071912;28;20132;-81
2023/01/10 06:53:31;;;;;;;20.70;2.55;;;5.00;99.90;;;;;;5071987;28;20086;-78
2023/01/10 06:55:57;;;;;;;;;;;5.00;99.90;;;;;;5072800;28;20048;-79
2023/01/10 06:58:23;;;;;;;8.55;3.13;;;5.00;99.90;;;;;;5071730;28;19943;-77
2023/01/10 07:00:49;;;;;;;23.35;3.17;;;5.10;99.90;;;;;;5055657;28;20057;-77
2023/01/10 07:03:15;;;;;;;12.95;3.08;;;5.10;99.90;;;;;;5071630;28;20489;-77
2023/01/10 07:05:41;;;;;;;11.05;2.65;;;5.00;99.90;;;;;;5071949;28;20158;-78
2023/01/10 07:08:06;;;;;;;21.35;2.70;;;5.00;99.90;;;;;;5071099;28;20505;-77
2023/01/10 07:10:32;;;;;;;17.27;3.53;;;5.10;99.90;;;;;;5071914;28;20045;-78
2023/01/10 07:12:58;;;;;;;11.43;2.85;;;5.10;99.90;;;;;;5072051;28;20052;-77
2023/01/10 07:15:25;;;;;;;15.88;2.67;;;5.20;99.90;;;;;;5071309;28;20056;-77
2023/01/10 07:17:51;;;;;;;13.63;3.13;;;5.30;99.90;;;;;;5070905;28;20048;-77
2023/01/10 07:20:17;;;;;;;11.60;2.70;;;5.20;99.90;;;;;;5071266;28;20102;-77
2023/01/10 07:22:43;;;;;;;15.15;3.40;;;5.20;99.90;;;;;;5071071;28;20049;-78
2023/01/10 07:25:09;;;;;;;14.63;2.60;;;5.20;99.90;;;;;;5071451;28;20059;-77
2023/01/10 07:27:35;;;;;;;;;;;5.20;99.90;;;;;;5072071;28;20060;-76
2023/01/10 07:30:01;;;;;;;13.55;3.58;;;5.20;99.90;;;;;;5071581;28;20280;-80
2023/01/10 07:32:26;;;;;;;12.75;3.55;;;5.10;99.90;;;;;;5071005;28;20036;-77
2023/01/10 07:34:52;;;;;;;18.90;2.70;;;5.30;99.90;;;;;;5071562;28;20051;-80
2023/01/10 07:37:18;;;;;;;15.38;2.80;;;5.10;99.90;;;;;;5070577;28;20428;-84
2023/01/10 07:39:43;;;;;;;13.48;3.20;;;5.50;99.90;;;;;;5071373;28;20050;-80
2023/01/10 07:42:09;;;;;;;7.85;2.83;;;5.10;99.90;;;;;;5071043;28;20052;-81
2023/01/10 07:44:35;;;;;;;15.98;4.05;;;5.00;99.90;;;;;;5071504;28;20123;-80
2023/01/10 07:47:00;;;;;;;15.65;3.25;;;5.20;99.90;;;;;;5072213;28;20539;-80
2023/01/10 07:49:26;;;;;;;14.52;3.30;;;5.30;99.90;;;;;;5071914;28;20047;-80
2023/01/10 07:51:52;;;;;;;14.70;3.10;;;5.40;99.90;;;;;;5054118;28;20440;-80
2023/01/10 07:54:18;;;;;;;17.63;3.90;;;5.20;99.90;;;;;;5070479;28;20055;-81
2023/01/10 07:56:46;;;;;;;20.35;3.38;;;4.90;99.90;;;;;;5071131;28;20101;-80
2023/01/10 07:59:12;;;;;;;16.23;3.45;;;5.20;99.90;;;;;;5070617;28;20455;-81
2023/01/10 08:01:38;;;;;;;21.42;3.17;;;5.30;99.90;;;;;;5070905;28;20060;-80
2023/01/10 08:04:04;;;;;;;16.95;3.45;;;5.20;99.90;;;;;;5054439;28;20048;-80
2023/01/10 08:06:30;;;;;;;11.13;3.42;;;4.90;99.90;;;;;;5070156;28;20224;-80
2023/01/10 08:08:56;;;;;;;;;;;4.90;99.90;;;;;;5054436;28;20095;-80
2023/01/10 08:11:22;;;;;;;9.18;2.88;;;4.90;99.90;;;;;;5070313;28;19955;-80
2023/01/10 08:13:48;;;;;;;17.02;3.67;;;4.80;99.90;;;;;;5070832;28;20394;-80
2023/01/10 08:16:14;;;;;;;18.63;3.03;;;4.90;99.90;;;;;;5070021;28;20052;-81
2023/01/10 08:18:41;;;;;;;;;;;4.90;99.90;;;;;;5071115;28;20444;-80
2023/01/10 08:21:08;;;;;;;19.02;3.42;;;4.90;99.90;;;;;;5070640;28;19920;-80
2023/01/10 08:23:34;;;;;;;21.58;4.15;;;4.90;99.90;;;;;;5069535;28;20501;-80
2023/01/10 08:26:00;;;;;;;;;;;4.90;99.90;;;;;;5071229;28;20044;-77
2023/01/10 08:28:26;;;;;;;20.33;3.38;;;5.00;99.90;;;;;;5070507;28;20389;-78
2023/01/10 08:30:54;;;;;;;12.38;3.30;;;5.00;99.90;;;;;;5071821;28;20481;-69
2023/01/10 08:33:21;;;;;;;22.52;3.17;;;5.20;99.90;;;;;;5070876;28;20094;-79
2023/01/10 08:35:47;;;;;;;14.80;2.78;;;5.20;99.90;;;;;;5070160;28;20053;-82
2023/01/10 08:38:13;;;;;;;13.65;3.03;;;5.30;99.90;;;;;;5052964;28;20131;-84
2023/01/10 08:40:38;;;;;;;13.50;3.38;;;5.30;99.90;;;;;;5070043;28;20052;-80
2023/01/10 08:43:08;;;;;;;15.20;3.30;;;5.90;99.90;;;;;;5069843;28;20127;-80
2023/01/10 08:45:36;;;;;;;10.73;2.85;;;5.40;99.90;;;;;;5070416;28;20094;-80
2023/01/10 08:48:03;;;;;;;14.95;3.45;;;5.40;99.90;;;;;;5069000;28;20061;-81
2023/01/10 08:50:28;;;;;;;23.92;4.18;;;5.40;99.90;;;;;;5068856;28;20519;-81
2023/01/10 08:52:57;;;;;;;15.68;2.63;;;5.40;99.90;;;;;;5068393;28;20049;-80
2023/01/10 08:55:23;;;;;;;20.70;3.20;;;5.50;99.90;;;;;;5068510;28;20044;-81
2023/01/10 08:57:48;;;;;;;18.15;3.85;;;5.50;99.90;;;;;;5052403;28;20505;-80
2023/01/10 09:00:14;;;;;;;23.00;3.28;;;5.50;99.90;;;;;;5068965;28;20053;-84
2023/01/10 09:02:40;;;;;;;17.58;2.92;;;5.60;99.90;;;;;;5068715;28;20052;-82
2023/01/10 09:05:06;;;;;;;;;;;5.60;99.90;;;;;;5069557;28;20109;-80
2023/01/10 09:07:32;;;;;;;13.43;2.58;;;5.60;99.90;;;;;;5068199;28;19928;-80
2023/01/10 09:09:57;;;;;;;20.63;4.47;;;5.70;99.90;;;;;;5069167;28;20493;-80
2023/01/10 09:15:08;;;;;;;17.17;3.30;;;5.70;99.90;;;;;;5069764;28;20056;-80
2023/01/10 09:17:35;;;;;;;24.67;2.60;;;5.80;99.90;;;;;;5052245;28;20048;-80
2023/01/10 09:20:05;;;;;;;18.05;3.47;;;5.90;99.90;;;;;;5069854;28;20056;-81
2023/01/10 09:22:31;;;;;;;16.27;3.30;;;5.90;99.90;;;;;;5069350;28;20466;-81
2023/01/10 09:24:56;;;;;;;14.95;3.20;;;6.20;99.90;;;;;;5069852;28;20508;-76
2023/01/10 09:27:22;;;;;;;19.52;4.03;;;6.00;99.90;;;;;;5069318;28;20072;-83
2023/01/10 09:29:47;;;;;;;23.10;3.83;;;6.00;99.90;;;;;;5053424;28;20052;-82
2023/01/10 09:32:14;;;;;;;12.15;3.28;;;6.10;99.90;;;;;;5069560;28;20127;-80
2023/01/10 09:34:40;;;;;;;22.10;4.35;;;6.10;99.90;;;;;;5069768;28;20041;-79
2023/01/10 09:37:05;;;;;;;16.27;4.75;;;6.30;99.90;;;;;;5069485;28;20052;-79
2023/01/10 09:39:32;;;;;;;15.77;3.92;;;6.10;99.90;;;;;;5068973;28;20489;-79
2023/01/10 09:42:04;;;;;;;17.63;4.07;;;6.10;99.90;;;;;;5054551;28;20053;-79
2023/01/10 09:44:44;;;;;;;22.02;3.92;;;6.10;99.90;;;;;;5073377;28;20048;-79
2023/01/10 09:47:20;;;;;;;21.75;4.43;;;6.10;99.90;;;;;;5073469;28;20049;-80
2023/01/10 09:50:07;;;;;;;20.20;4.05;;;6.20;99.90;;;;;;5073772;28;20048;-80
2023/01/10 09:52:36;;;;;;;;;;;6.20;99.90;;;;;;5073046;28;20092;-79
2023/01/10 09:55:26;;;;;;;21.63;4.15;;;6.30;99.90;;;;;;5073469;28;19920;-80
2023/01/10 09:57:55;;;;;;;14.15;4.18;;;6.30;99.90;;;;;;5073068;28;20052;-80
2023/01/10 10:00:26;;;;;;;22.60;5.00;;;6.60;99.90;;;;;;5072971;28;20052;-79
2023/01/10 10:02:52;;;;;;;19.88;4.20;;;6.40;99.90;;;;;;5072935;28;20482;-79
2023/01/10 10:05:19;;;;;;;;;;;6.70;99.90;;;;;;5073466;28;20046;-81
2023/01/10 10:07:51;;;;;;;22.23;4.78;;;6.50;99.90;;;;;;5072633;28;19979;-79
2023/01/10 10:10:40;;;;;;;28.80;4.80;;;6.50;99.90;;;;;;5073195;28;20041;-81
2023/01/10 10:13:20;;;;;;;11.38;3.80;;;6.50;99.90;;;;;;5071654;28;20105;-79
2023/01/10 10:16:20;;;;;;;17.10;5.20;;;6.60;99.90;;;;;;5056217;28;20052;-80
2023/01/10 10:19:06;;;;;;;21.08;4.95;;;6.60;99.90;;;;;;5072796;28;20056;-79
2023/01/10 10:21:31;;;;;;;23.83;5.57;;;6.60;99.90;;;;;;5054470;28;20506;-79
2023/01/10 10:24:15;;;;;;;22.52;5.18;;;6.60;99.90;;;;;;5072652;28;20059;-80
2023/01/10 10:27:13;;;;;;;22.88;4.70;;;6.70;99.90;;;;;;5072492;28;20378;-79
2023/01/10 10:29:38;;;;;;;;;;;6.70;99.90;;;;;;5071856;28;20083;-79
2023/01/10 10:32:31;;;;;;;29.40;5.65;;;6.70;99.90;;;;;;5072361;28;19959;-80
2023/01/10 10:35:00;;;;;;;19.77;3.70;;;6.70;99.90;;;;;;5072648;28;20135;-80
2023/01/10 10:37:33;;;;;;;17.60;4.15;;;6.70;99.90;;;;;;5071623;28;20063;-79
2023/01/10 10:40:02;;;;;;;21.25;4.75;;;6.70;99.90;;;;;;5072636;28;20048;-80
2023/01/10 10:42:34;;;;;;;16.67;6.00;;;6.70;99.90;;;;;;5072265;28;20072;-79
2023/01/10 10:45:05;;;;;;;22.02;5.35;;;7.00;99.90;;;;;;5072037;28;20493;-80
2023/01/10 10:47:33;;;;;;;22.33;5.65;;;6.80;99.90;;;;;;5071295;28;20044;-76
2023/01/10 10:50:22;;;;;;;23.05;5.60;;;6.80;99.90;;;;;;5072960;28;20044;-78
2023/01/10 10:52:48;;;;;;;27.38;5.72;;;6.70;99.90;;;;;;5070481;28;20044;-78
2023/01/10 10:55:24;;;;;;;;;;;6.80;99.90;;;;;;5055697;28;20052;-78
2023/01/10 10:57:50;;;;;;;15.82;4.55;;;6.70;99.90;;;;;;5072131;28;19920;-78
2023/01/10 11:00:21;;;;;;;16.83;4.15;;;6.70;99.90;;;;;;5071806;28;20523;-79
2023/01/10 11:02:56;;;;;;;21.52;4.90;;;6.70;99.90;;;;;;5071738;28;20052;-77
2023/01/10 11:05:36;;;;;;;14.57;4.65;;;6.80;99.90;;;;;;5071916;28;20115;-80
2023/01/10 11:08:15;;;;;;;18.95;5.15;;;6.80;99.90;;;;;;5071415;28;20557;-78
2023/01/10 11:10:48;;;;;;;16.55;4.03;;;6.70;99.90;;;;;;5071630;28;20641;-78
2023/01/10 11:13:34;;;;;;;17.35;3.80;;;6.70;99.90;;;;;;5072058;28;20055;-78
2023/01/10 11:16:06;;;;;;;14.82;3.08;;;6.70;99.90;;;;;;5071520;28;20067;-78
2023/01/10 11:18:33;;;;;;;22.23;4.60;;;6.70;99.90;;;;;;5071212;28;20371;-78
2023/01/10 11:21:10;;;;;;;13.48;3.28;;;6.70;99.90;;;;;;5071308;28;20056;-77
2023/01/10 11:23:38;;;;;;;14.32;3.65;;;6.70;99.90;;;;;;5071156;28;20485;-76
2023/01/10 11:26:20;;;;;;;21.77;3.17;;;6.70;99.90;;;;;;5072297;28;20048;-78
2023/01/10 11:28:46;;;;;;;16.75;3.00;;;6.80;99.90;;;;;;5054745;28;20053;-79
2023/01/10 11:31:12;;;;;;;16.00;3.75;;;6.80;99.90;;;;;;5071184;28;20067;-78
2023/01/10 11:33:39;;;;;;;14.55;4.10;;;6.80;99.90;;;;;;5072209;28;20098;-77
2023/01/10 11:36:09;;;;;;;21.45;3.83;;;6.80;99.90;;;;;;5071259;28;20052;-78
2023/01/10 11:38:35;;;;;;;15.55;3.35;;;6.80;99.90;;;;;;5070465;28;20048;-78
2023/01/10 11:41:21;;;;;;;9.82;2.92;;;7.00;99.90;;;;;;5071745;28;20775;-79
2023/01/10 11:43:47;;;;;;;16.38;3.83;;;6.80;99.90;;;;;;5071986;28;20049;-78
2023/01/10 11:46:25;;;;;;;18.65;3.20;;;6.80;99.90;;;;;;5070022;28;20093;-78
2023/01/10 11:49:18;;;;;;;16.15;3.53;;;6.80;99.90;;;;;;5072003;28;20040;-78
2023/01/10 11:51:58;;;;;;;15.82;4.30;;;6.80;99.90;;;;;;5071516;28;20047;-78
2023/01/10 11:54:28;;;;;;;13.25;3.67;;;6.80;99.90;;;;;;5071739;28;20091;-79
2023/01/10 11:57:13;;;;;;;21.17;3.72;;;6.70;99.90;;;;;;5071837;28;20075;-78
2023/01/10 11:59:48;;;;;;;20.40;3.63;;;6.70;99.90;;;;;;5071434;28;20048;-78
2023/01/10 12:02:27;;;;;;;9.75;3.15;;;6.70;99.90;;;;;;5071562;28;20490;-78
2023/01/10 12:04:55;;;;;;;8.73;3.42;;;6.70;99.90;;;;;;5071608;28;20131;-82
2023/01/10 12:07:21;;;;;;;14.13;3.42;;;6.70;99.90;;;;;;5071464;28;20458;-78
2023/01/10 12:09:57;;;;;;;13.40;4.63;;;6.70;99.90;;;;;;5071161;28;20083;-78
2023/01/10 12:12:29;;;;;;;26.23;5.43;;;6.70;99.90;;;;;;5071945;28;20074;-78
2023/01/10 12:14:57;;;;;;;14.13;3.15;;;6.70;99.90;;;;;;5071722;28;20047;-79
2023/01/10 12:17:32;;;;;;;10.98;2.92;;;6.60;99.90;;;;;;5071580;28;20055;-78
2023/01/10 12:20:00;;;;;;;18.92;3.90;;;6.60;99.90;;;;;;5071483;28;20051;-78
2023/01/10 12:22:38;;;;;;;19.52;3.50;;;6.60;99.90;;;;;;5070273;28;20048;-79
2023/01/10 12:25:34;;;;;;;14.20;3.33;;;6.60;99.90;;;;;;5070700;28;20059;-78
2023/01/10 12:28:00;;;;;;;15.60;3.28;;;6.60;99.90;;;;;;5070578;28;20123;-78
2023/01/10 12:30:34;;;;;;;;;;;6.60;99.90;;;;;;5071020;28;20506;-78
2023/01/10 12:33:05;;;;;;;14.60;3.17;;;6.50;99.90;;;;;;5070581;28;20399;-78
2023/01/10 12:35:40;;;;;;;14.98;3.20;;;6.50;99.90;;;;;;5070922;28;20051;-78
2023/01/10 12:39:08;;;;;;;18.08;3.75;;;6.50;99.90;;;;;;5070428;28;20124;-79
2023/01/10 12:41:10;;;;;;;15.85;3.17;;;6.50;99.90;;;;;;5059540;28;20048;-78
2023/01/10 12:46:32;;;;;;;12.07;2.90;;;6.50;99.90;;;;;;5070852;28;20453;-79
2023/01/10 12:49:12;;;;;;;23.33;4.20;;;6.40;99.90;;;;;;5071068;28;20378;-78
2023/01/10 12:51:39;;;;;;;15.30;3.58;;;6.40;99.90;;;;;;5070277;28;20044;-79
2023/01/10 12:54:15;;;;;;;16.27;3.70;;;6.50;99.90;;;;;;5070552;28;20382;-79
2023/01/10 12:56:40;;;;;;;21.45;4.00;;;6.50;99.90;;;;;;5070041;28;20051;-78
2023/01/10 12:59:19;;;;;;;20.42;3.35;;;6.50;99.90;;;;;;5070771;28;20048;-78
2023/01/10 13:01:51;;;;;;;12.77;3.13;;;6.50;99.90;;;;;;5070207;28;20052;-78
2023/01/10 13:04:21;;;;;;;22.80;3.78;;;6.50;99.90;;;;;;5070868;28;20048;-79
2023/01/10 13:06:49;;;;;;;13.90;3.45;;;6.50;99.90;;;;;;5070334;28;20080;-79
2023/01/10 13:09:26;;;;;;;17.63;4.28;;;6.60;99.90;;;;;;5070460;28;20098;-78
2023/01/10 13:12:20;;;;;;;18.73;3.45;;;6.40;99.90;;;;;;5070388;28;20090;-78
2023/01/10 13:15:04;;;;;;;14.80;3.72;;;6.40;99.90;;;;;;5070117;28;20040;-78
2023/01/10 13:17:38;;;;;;;12.43;3.53;;;6.40;99.90;;;;;;5072609;28;20061;-77
2023/01/10 13:20:16;;;;;;;17.10;2.78;;;6.40;99.90;;;;;;5074693;28;20044;-79
2023/01/10 13:22:56;;;;;;;10.55;2.90;;;6.30;99.90;;;;;;5073188;28;20052;-81